Chrisopigi Lady — A8EQ9 — position and weather

sailwx.info

Track history (hours):
 
Tides and Currents Weather Stations Pressure Air Temp Water Temp Dewpoint Dewpoint Depression Visibility Wind Speed Wind Dir Waves Ship Positions

Chrisopigi Lady

Last reported at 2014-May-30 07:13 UTC. Time now 2014-Jul-26 05:10 UTC.
Position N 21°49' E 068°04'.
Warning: this ship's position is 56 days out of date.

Length 228 m; draft 8.2 m.

MMSI: 636012314.

Date/timePositionNaut miles runAvg speedWind from/ knotsBaromVisibWave heightAir tempDewpointWater temp
2014-May-30 07:13N 21°49' E 068°04'811.7
2014-May-30 06:32N 21°55' E 068°09'98 2.1
2014-May-28 07:33N 22°31' E 069°48'6 5.1
2014-May-28 06:18N 22°38' E 069°49'6 7.4
2014-May-28 05:32N 22°39' E 069°55'59 1.3
2014-May-26 09:49N 22°28' E 068°52'311.7
2014-May-26 09:33N 22°25' E 068°51'1311.4
2014-May-26 08:26N 22°16' E 068°41'512.6
2014-May-26 08:03N 22°14' E 068°37'813.0
2014-May-26 07:27N 22°09' E 068°29'613.1
2014-May-26 06:58N 22°06' E 068°23'713.0
2014-May-26 06:27N 22°03' E 068°17'512.8
2014-May-26 06:05N 21°59' E 068°14'812.9
2014-May-26 05:29N 21°53' E 068°09'2213.1
2014-May-26 03:49N 21°36' E 067°55'413.1
2014-May-26 03:32N 21°33' E 067°52'  
Track history (hours):
 
Tides and Currents Weather Stations Pressure Air Temp Water Temp Dewpoint Dewpoint Depression Visibility Wind Speed Wind Dir Waves Ship Positions

Chrisopigi Lady

Last reported at 2014-May-30 07:13 UTC. Time now 2014-Jul-26 05:10 UTC.
Position N 21°49' E 068°04'.
Warning: this ship's position is 56 days out of date.

Length 228 m; draft 8.2 m.

MMSI: 636012314.

Date/timePositionNaut miles runAvg speedWind from/ knotsBaromVisibWave heightAir tempDewpointWater temp
2014-May-30 07:13N 21°49' E 068°04'811.7
2014-May-30 06:32N 21°55' E 068°09'98 2.1
2014-May-28 07:33N 22°31' E 069°48'6 5.1
2014-May-28 06:18N 22°38' E 069°49'6 7.4
2014-May-28 05:32N 22°39' E 069°55'59 1.3
2014-May-26 09:49N 22°28' E 068°52'311.7
2014-May-26 09:33N 22°25' E 068°51'1311.4
2014-May-26 08:26N 22°16' E 068°41'512.6
2014-May-26 08:03N 22°14' E 068°37'813.0
2014-May-26 07:27N 22°09' E 068°29'613.1
2014-May-26 06:58N 22°06' E 068°23'713.0
2014-May-26 06:27N 22°03' E 068°17'512.8
2014-May-26 06:05N 21°59' E 068°14'812.9
2014-May-26 05:29N 21°53' E 068°09'2213.1
2014-May-26 03:49N 21°36' E 067°55'413.1
2014-May-26 03:32N 21°33' E 067°52'  

Dump ship's entire track history